Time;durP1;ratioP1;P1;durP2;ratioP2;P2;SDS_P1;SDS_P2;PMS_P1;PMS_P2;Temp;Humidity;BMP_temperature;BMP_pressure;BME280_temperature;BME280_humidity;BME280_pressure;Samples;Min_cycle;Max_cycle;Signal;HPM_P1;HPM_P2
2022/03/20 00:01:26;;;;;;;;;;;8.20;37.40;;;6.24;43.24;103745.06;8357125;28;20015;-88
2022/03/20 00:05:49;;;;;;;;;;;8.10;36.90;;;6.20;43.25;103742.44;8326148;28;20007;-86
2022/03/20 00:10:10;;;;;;;;;;;8.10;37.50;;;6.22;43.71;103751.97;8329183;28;19954;-87
2022/03/20 00:14:32;;;;;;;;;;;8.00;37.40;;;6.13;43.23;103742.34;8338663;28;19921;-88
2022/03/20 00:18:53;;;;;;;;;;;8.00;37.10;;;6.10;43.20;103744.91;8343038;28;20015;-86
2022/03/20 00:23:16;;;;;;;;;;;8.00;37.20;;;6.07;43.63;103737.94;8347746;28;20004;-87
2022/03/20 00:27:38;;;;;;;;;;;8.00;37.60;;;6.09;43.05;103750.94;8329985;28;20007;-86
2022/03/20 00:32:04;;;;;;;;;;;7.90;37.70;;;6.10;43.61;103758.75;8331328;28;19921;-88
2022/03/20 00:36:26;;;;;;;;;;;8.00;37.70;;;6.16;43.36;103764.03;8340155;28;20028;-87
2022/03/20 00:40:47;;;;;;;;;;;7.90;37.80;;;6.04;43.66;103750.88;8337953;28;19999;-87
2022/03/20 00:45:09;;;;;;;;;;;7.90;37.80;;;6.08;43.51;103754.41;8329428;28;20004;-88
2022/03/20 00:49:31;;;;;;;;;;;7.90;37.70;;;6.07;43.05;103760.44;8318213;28;19928;-88
2022/03/20 00:53:57;;;;;;;;;;;7.90;37.60;;;6.02;43.58;103751.72;8346457;28;20456;-87
2022/03/20 00:58:18;;;;;;;;;;;7.80;37.50;;;5.86;43.33;103743.72;8328936;28;20008;-89
2022/03/20 01:02:41;;;;;;;;;;;7.80;37.60;;;5.76;43.55;103732.34;8343193;28;20465;-87
2022/03/20 01:07:03;;;;;;;;;;;7.60;37.70;;;5.69;43.78;103730.50;8327352;28;20015;-88
2022/03/20 01:11:25;;;;;;;;;;;7.70;37.20;;;5.65;43.37;103723.56;8347781;28;20375;-87
2022/03/20 01:15:47;;;;;;;;;;;7.60;37.70;;;5.69;43.28;103745.19;8328059;28;20027;-87
2022/03/20 01:20:09;;;;;;;;;;;7.50;37.70;;;5.58;43.31;103741.59;8335314;28;20003;-87
2022/03/20 01:24:31;;;;;;;;;;;7.50;37.50;;;5.40;43.68;103721.44;8340240;28;19992;-87
2022/03/20 01:28:52;;;;;;;;;;;7.40;36.60;;;5.49;43.59;103738.00;8328042;28;19921;-87
2022/03/20 01:33:15;;;;;;;;;;;7.40;37.20;;;5.33;43.24;103721.34;8321581;28;19921;-89
2022/03/20 01:37:37;;;;;;;;;;;7.20;36.90;;;5.30;43.32;103725.63;8309008;28;19917;-88
2022/03/20 01:41:58;;;;;;;;;;;7.10;37.30;;;5.17;43.36;103709.03;8307213;28;20008;-88
2022/03/20 01:46:20;;;;;;;;;;;7.00;37.50;;;5.19;43.38;103717.69;8323550;28;19921;-87
2022/03/20 01:50:42;;;;;;;;;;;7.10;37.30;;;5.10;43.16;103699.41;8337288;28;19944;-88
2022/03/20 01:55:05;;;;;;;;;;;7.10;37.30;;;4.98;43.12;103686.28;8291678;28;19917;-88
2022/03/20 01:59:27;;;;;;;;;;;7.00;37.50;;;4.95;43.20;103683.63;8316574;28;19923;-88
2022/03/20 02:03:51;;;;;;;;;;;7.00;37.50;;;5.08;43.22;103703.72;8289264;28;19943;-87
2022/03/20 02:08:13;;;;;;;;;;;6.80;37.70;;;4.93;43.30;103681.00;8319938;28;20011;-88
2022/03/20 02:12:36;;;;;;;;;;;6.80;37.40;;;4.88;43.26;103675.75;8327854;28;20004;-88
2022/03/20 02:16:57;;;;;;;;;;;7.10;37.80;;;4.86;43.20;103682.66;8336708;28;20448;-87
2022/03/20 02:21:35;;;;;;;;;;;6.70;37.50;;;4.68;43.32;103650.41;8334964;28;19976;-88
2022/03/20 02:25:57;;;;;;;;;;;6.70;37.50;;;4.73;43.34;103660.00;8341278;28;20349;-88
2022/03/20 02:30:18;;;;;;;;;;;6.70;37.60;;;4.70;43.27;103657.34;8326671;28;20373;-88
2022/03/20 02:34:40;;;;;;;;;;;6.70;37.90;;;4.77;43.43;103668.66;8336306;28;20441;-87
2022/03/20 02:39:03;;;;;;;;;;;6.70;37.80;;;4.73;43.65;103654.81;8341261;28;20015;-88
2022/03/20 02:43:29;;;;;;;;;;;6.70;37.60;;;4.75;43.23;103658.31;8340118;28;20007;-88
2022/03/20 02:47:51;;;;;;;;;;;6.70;37.80;;;4.59;43.14;103631.28;8346624;28;19917;-88
2022/03/20 02:52:13;;;;;;;;;;;6.60;37.90;;;4.65;43.46;103653.81;8325025;28;20403;-87
2022/03/20 02:56:34;;;;;;;;;;;6.60;37.80;;;4.54;43.24;103642.41;8324845;28;20452;-88
2022/03/20 03:00:58;;;;;;;;;;;6.60;37.80;;;4.47;43.35;103646.59;8336911;28;20015;-88
2022/03/20 03:05:23;;;;;;;;;;;6.40;37.60;;;4.37;43.38;103614.50;8318122;28;20003;-87
2022/03/20 03:19:05;;;;;;;;;;;6.40;37.40;;;4.50;43.71;103644.06;8342379;28;20007;-88
2022/03/20 03:23:26;;;;;;;;;;;6.40;37.40;;;4.48;43.75;103637.97;8346405;28;20003;-87
2022/03/20 03:27:48;;;;;;;;;;;6.30;37.50;;;4.42;43.62;103633.56;8325250;28;20003;-88
2022/03/20 03:32:09;;;;;;;;;;;6.40;37.50;;;4.26;43.48;103610.88;8345759;28;19999;-87
2022/03/20 03:36:31;;;;;;;;;;;6.30;37.60;;;4.43;43.44;103644.81;8331827;28;20011;-87
2022/03/20 03:40:54;;;;;;;;;;;6.60;37.70;;;4.35;43.57;103626.56;8350937;28;20023;-87
2022/03/20 03:45:17;;;;;;;;;;;6.30;37.40;;;4.28;43.75;103626.44;8351315;28;20007;-88
2022/03/20 03:49:39;;;;;;;;;;;6.30;37.60;;;4.24;43.54;103627.19;8331811;28;20007;-88
2022/03/20 03:54:01;;;;;;;;;;;6.00;37.50;;;4.27;43.40;103633.31;8343301;28;20015;-88
2022/03/20 03:58:22;;;;;;;;;;;6.20;37.80;;;4.06;43.65;103607.94;8325026;28;20445;-88
2022/03/20 04:02:44;;;;;;;;;;;6.20;37.60;;;4.25;43.51;103636.72;8339122;28;20480;-89
2022/03/20 04:07:05;;;;;;;;;;;6.20;37.90;;;4.21;43.33;103630.59;8315875;28;20012;-88
2022/03/20 04:11:27;;;;;;;;;;;6.10;37.70;;;4.19;43.94;103628.00;8332823;28;19927;-87
2022/03/20 04:15:49;;;;;;;;;;;6.10;37.80;;;4.18;43.77;103634.00;8326330;28;20007;-88
2022/03/20 04:20:12;;;;;;;;;;;6.00;37.60;;;4.09;43.63;103620.91;8335738;28;20004;-88
2022/03/20 04:24:36;;;;;;;;;;;6.10;37.60;;;3.99;43.60;103609.50;8330948;28;20015;-88
2022/03/20 04:28:57;;;;;;;;;;;6.00;37.70;;;4.04;43.51;103634.59;8329607;28;20682;-88
2022/03/20 04:33:19;;;;;;;;;;;6.00;37.90;;;3.97;43.76;103625.88;8342447;28;20460;-88
2022/03/20 04:37:44;;;;;;;;;;;6.00;37.90;;;3.88;43.69;103626.53;8332440;28;19972;-88
2022/03/20 04:42:06;;;;;;;;;;;5.90;37.90;;;3.93;43.67;103643.00;8340232;28;20007;-88
2022/03/20 04:46:28;;;;;;;;;;;5.90;37.90;;;3.93;43.50;103650.78;8329984;28;20035;-88
2022/03/20 05:00:10;;;;;;;;;;;5.80;38.00;;;3.87;43.49;103658.41;8335674;28;20007;-89
2022/03/20 05:04:32;;;;;;;;;;;5.80;38.00;;;3.90;43.75;103673.09;8307107;28;20007;-88
2022/03/20 05:13:19;;;;;;;;;;;5.80;37.90;;;3.81;43.42;103657.41;8336423;28;19987;-88
2022/03/20 05:13:36;;;;;;;;;;;5.80;38.00;;;3.73;43.49;103660.72;8337926;28;20012;-88
2022/03/20 05:17:58;;;;;;;;;;;5.60;37.90;;;3.73;43.59;103655.56;8335742;28;20004;-88
2022/03/20 05:22:20;;;;;;;;;;;5.70;38.10;;;3.77;43.47;103662.50;8329797;28;20015;-88
2022/03/20 05:26:42;;;;;;;;;;;5.60;38.00;;;3.60;43.76;103643.22;8338732;28;19975;-89
2022/03/20 05:31:04;;;;;;;;;;;5.70;38.00;;;3.75;43.71;103684.00;8328007;28;19927;-89
2022/03/20 05:35:26;;;;;;;;;;;5.70;38.10;;;3.67;43.50;103675.19;8320602;28;20011;-89
2022/03/20 05:39:47;;;;;;;;;;;5.80;38.20;;;3.58;43.78;103664.69;8328258;28;20011;-88
2022/03/20 05:44:11;;;;;;;;;;;5.50;38.10;;;3.40;43.55;103650.50;8342559;28;20432;-88
2022/03/20 05:48:35;;;;;;;;;;;5.50;38.20;;;3.47;43.80;103677.38;8347408;28;20011;-88
2022/03/20 05:52:57;;;;;;;;;;;5.40;38.20;;;3.52;43.61;103691.25;8330970;28;20444;-89
2022/03/20 06:01:59;;;;;;;;;;;5.40;38.20;;;3.44;43.51;103669.56;8329889;28;20012;-89
2022/03/20 06:06:20;;;;;;;;;;;5.40;38.30;;;3.46;43.73;103681.66;8332440;28;20019;-89
2022/03/20 06:10:43;;;;;;;;;;;5.40;38.30;;;3.34;43.81;103658.13;8325125;28;20027;-89
2022/03/20 06:15:08;;;;;;;;;;;5.40;38.30;;;3.51;43.81;103682.66;8313005;28;20445;-89
2022/03/20 06:19:30;;;;;;;;;;;5.50;38.30;;;3.47;43.87;103674.78;8319884;28;20382;-90
2022/03/20 06:23:54;;;;;;;;;;;5.50;38.30;;;3.62;43.87;103697.47;8318848;28;20019;-89
2022/03/20 06:28:15;;;;;;;;;;;5.50;38.20;;;3.66;43.91;103691.56;8348469;28;20015;-89
2022/03/20 06:32:37;;;;;;;;;;;5.70;38.30;;;3.60;43.77;103689.72;8331627;28;20012;-88
2022/03/20 06:36:59;;;;;;;;;;;5.60;38.00;;;3.77;43.73;103696.09;8317331;28;20000;-89
2022/03/20 06:41:20;;;;;;;;;;;5.60;38.10;;;3.62;44.13;103662.22;8283995;28;20364;-89
2022/03/20 06:45:42;;;;;;;;;;;5.70;38.30;;;3.84;43.98;103688.50;8299239;28;19925;-89
2022/03/20 06:50:06;;;;;;;;;;;5.80;38.30;;;4.00;44.17;103690.56;8306792;28;19932;-91
2022/03/20 06:54:28;;;;;;;;;;;6.00;38.10;;;4.04;43.85;103681.13;8298729;28;20004;-90
2022/03/20 06:58:50;;;;;;;;;;;6.10;38.70;;;4.17;44.17;103678.81;8311370;28;21337;-90
2022/03/20 07:03:12;;;;;;;;;;;6.20;38.30;;;4.49;43.72;103721.66;8308535;28;19917;-86
2022/03/20 07:07:40;;;;;;;;;;;6.30;38.30;;;4.48;43.80;103707.84;8316641;28;19916;-86
2022/03/20 07:12:01;;;;;;;;;;;6.40;38.30;;;4.66;43.97;103709.91;8319022;28;19921;-94
2022/03/20 07:16:28;;;;;;;;;;;6.50;37.80;;;4.69;43.98;103707.34;8326305;28;19916;-85
2022/03/20 07:20:50;;;;;;;;;;;6.60;38.10;;;4.77;43.50;103705.78;8350942;28;20003;-88
2022/03/20 07:29:51;;;;;;;;;;;6.80;37.70;;;4.69;43.48;103657.31;8346746;28;20011;-82
2022/03/20 07:34:13;;;;;;;;;;;6.70;37.70;;;5.01;43.97;103704.44;8352172;28;20032;-86
2022/03/20 07:38:37;;;;;;;;;;;6.90;37.80;;;4.94;43.73;103674.09;8328036;28;20008;-88
2022/03/20 07:42:59;;;;;;;;;;;7.00;37.90;;;5.20;43.57;103703.88;8295495;28;19917;-85
2022/03/20 07:47:22;;;;;;;;;;;7.10;38.00;;;5.28;43.67;103699.69;8305447;28;19944;-84
2022/03/20 07:51:44;;;;;;;;;;;7.20;37.90;;;5.40;43.49;103705.91;8327375;28;19928;-84
2022/03/20 07:56:05;;;;;;;;;;;7.30;36.90;;;5.52;43.52;103706.09;8327260;28;20289;-89
2022/03/20 08:00:27;;;;;;;;;;;7.40;37.00;;;5.59;43.28;103689.78;8313099;28;19984;-89
2022/03/20 08:04:51;;;;;;;;;;;7.50;37.00;;;5.77;43.30;103695.19;8336628;28;20278;-88
2022/03/20 08:09:13;;;;;;;;;;;7.70;36.60;;;5.97;43.20;103682.50;8302625;28;19921;-88
2022/03/20 08:13:35;;;;;;;;;;;7.80;36.70;;;6.20;43.46;103679.28;8303437;28;20484;-87
2022/03/20 08:17:56;;;;;;;;;;;7.80;37.20;;;6.42;43.32;103683.84;8287452;28;19932;-86
2022/03/20 08:22:18;;;;;;;;;;;8.30;36.40;;;6.77;43.23;103705.81;8314534;28;19925;-89
2022/03/20 08:26:40;;;;;;;;;;;8.40;36.90;;;6.89;43.00;103681.69;8333577;28;19929;-85
2022/03/20 08:31:01;;;;;;;;;;;8.60;36.30;;;7.02;43.17;103662.69;8321007;28;20337;-84
2022/03/20 08:35:23;;;;;;;;;;;9.00;35.70;;;7.33;43.14;103681.97;8328841;28;19927;-84
2022/03/20 08:39:46;;;;;;;;;;;9.20;36.70;;;7.53;42.74;103682.09;8324466;28;20586;-85
2022/03/20 08:44:10;;;;;;;;;;;9.40;35.10;;;7.75;42.62;103670.94;8321107;28;20405;-85
2022/03/20 08:48:32;;;;;;;;;;;9.60;35.20;;;7.81;43.07;103635.41;8326238;28;19920;-84
2022/03/20 08:52:56;;;;;;;;;;;9.80;36.40;;;8.27;42.84;103669.34;8335996;28;19925;-85
2022/03/20 08:57:17;;;;;;;;;;;10.00;36.60;;;8.32;42.93;103639.88;8313708;28;19942;-83
2022/03/20 09:01:39;;;;;;;;;;;10.30;35.10;;;8.57;42.76;103656.41;8353973;28;19917;-88
2022/03/20 09:06:03;;;;;;;;;;;10.50;33.80;;;8.88;42.51;103673.75;8306632;28;19927;-85
2022/03/20 09:10:26;;;;;;;;;;;10.70;35.00;;;9.03;42.94;103668.53;8336248;28;19931;-85
2022/03/20 09:14:47;;;;;;;;;;;10.90;35.90;;;9.17;42.24;103658.09;8331635;28;19924;-85
2022/03/20 09:19:10;;;;;;;;;;;11.00;35.20;;;9.23;42.36;103658.94;8296457;28;19921;-85
2022/03/20 09:23:32;;;;;;;;;;;10.90;36.10;;;9.35;42.06;103654.59;8301135;28;19925;-84
2022/03/20 09:27:53;;;;;;;;;;;11.30;33.60;;;9.47;41.94;103654.53;8339851;28;19921;-84
2022/03/20 09:32:17;;;;;;;;;;;11.40;34.60;;;9.60;41.96;103642.31;8313698;28;22123;-84
2022/03/20 09:36:48;;;;;;;;;;;11.70;34.90;;;9.82;41.57;103649.16;8332646;28;19924;-86
2022/03/20 09:41:11;;;;;;;;;;;11.60;35.20;;;9.55;41.50;103571.88;8338410;28;19929;-85
2022/03/20 09:45:33;;;;;;;;;;;11.80;35.40;;;10.06;41.36;103634.25;8313890;28;20510;-87
2022/03/20 09:49:56;;;;;;;;;;;12.00;34.70;;;10.11;41.84;103612.44;8320954;28;19931;-86
2022/03/20 09:54:18;;;;;;;;;;;12.10;34.30;;;10.10;41.78;103573.28;8326463;28;19927;-85
2022/03/20 09:58:40;;;;;;;;;;;12.30;34.90;;;10.39;41.39;103588.78;8315518;28;20291;-86
2022/03/20 10:03:24;;;;;;;;;;;12.50;34.10;;;10.84;41.61;103626.69;8318719;28;19921;-86
2022/03/20 10:07:45;;;;;;;;;;;12.60;35.10;;;10.70;41.75;103578.91;8320307;28;20312;-85
2022/03/20 10:12:07;;;;;;;;;;;12.60;34.40;;;11.01;41.18;103602.13;8297431;28;19933;-86
2022/03/20 10:16:28;;;;;;;;;;;13.00;35.40;;;11.29;41.68;103610.53;8335122;28;20389;-86
2022/03/20 10:20:52;;;;;;;;;;;13.40;35.50;;;11.17;41.65;103540.91;8343967;28;20404;-85
2022/03/20 10:25:16;;;;;;;;;;;13.40;35.70;;;11.78;41.40;103619.53;8315863;28;19921;-86
2022/03/20 10:29:47;;;;;;;;;;;13.50;35.50;;;11.97;41.37;103613.16;8304630;28;19925;-79
2022/03/20 10:34:09;;;;;;;;;;;13.80;35.60;;;12.02;41.35;103590.41;8336306;28;19947;-79
2022/03/20 10:38:38;;;;;;;;;;;13.90;32.90;;;12.18;41.29;103598.88;8335823;28;19924;-79
2022/03/20 10:43:15;;;;;;;;;;;14.00;33.90;;;12.28;40.69;103582.09;8341120;28;20289;-80
2022/03/20 10:47:37;;;;;;;;;;;14.20;34.90;;;12.48;40.87;103588.78;8290786;28;19925;-85
2022/03/20 10:52:25;;;;;;;;;;;14.30;33.60;;;12.38;40.54;103560.09;8323557;28;19921;-82
2022/03/20 10:57:01;;;;;;;;;;;14.40;33.50;;;12.64;40.37;103587.63;8325174;28;20399;-85
2022/03/20 11:01:36;;;;;;;;;;;14.50;32.50;;;12.79;40.29;103591.72;8333687;28;20015;-85
2022/03/20 11:05:57;;;;;;;;;;;14.60;31.50;;;12.72;40.20;103567.38;8307515;28;20020;-85
2022/03/20 11:10:20;;;;;;;;;;;14.60;31.40;;;12.96;40.08;103580.91;8327667;28;19925;-85
2022/03/20 11:14:42;;;;;;;;;;;14.90;32.20;;;13.06;40.15;103572.81;8318906;28;19921;-85
2022/03/20 11:19:08;;;;;;;;;;;15.00;32.20;;;13.16;39.86;103562.16;8340569;28;20357;-85
2022/03/20 11:23:32;;;;;;;;;;;14.90;30.20;;;13.21;39.92;103544.56;8312903;28;20003;-85
2022/03/20 11:28:01;;;;;;;;;;;15.00;33.30;;;13.26;39.98;103535.72;8311805;28;19921;-86
2022/03/20 11:32:23;;;;;;;;;;;15.30;31.90;;;13.48;39.78;103537.88;8323794;28;19932;-85
2022/03/20 11:37:05;;;;;;;;;;;15.10;31.20;;;13.59;39.80;103527.16;8305682;28;19921;-85
2022/03/20 11:41:26;;;;;;;;;;;15.30;33.30;;;13.67;39.53;103527.84;8329068;28;20288;-83
2022/03/20 11:46:17;;;;;;;;;;;15.40;31.70;;;13.76;39.55;103532.00;8333548;28;19931;-85
2022/03/20 11:50:44;;;;;;;;;;;15.50;33.00;;;13.47;39.27;103462.63;8319926;28;19925;-87
2022/03/20 11:55:06;;;;;;;;;;;15.50;32.40;;;13.87;38.96;103503.72;8350178;28;19942;-84
2022/03/20 11:59:49;;;;;;;;;;;15.60;32.40;;;14.00;39.15;103501.66;8316530;28;20415;-87
2022/03/20 12:04:14;;;;;;;;;;;15.80;30.10;;;13.84;39.04;103461.75;8351638;28;19927;-87
2022/03/20 12:09:10;;;;;;;;;;;15.80;31.40;;;14.15;39.23;103485.50;8334834;28;19927;-84
2022/03/20 12:13:38;;;;;;;;;;;15.80;31.50;;;14.22;38.90;103480.94;8346434;28;19929;-85
2022/03/20 12:18:05;;;;;;;;;;;15.90;32.10;;;14.28;38.97;103486.03;8341990;28;19924;-85
2022/03/20 12:22:29;;;;;;;;;;;16.00;30.70;;;14.36;38.46;103476.16;8312323;28;19925;-85
2022/03/20 12:26:52;;;;;;;;;;;16.00;33.60;;;14.40;38.60;103462.03;8301866;28;19931;-85
2022/03/20 12:31:25;;;;;;;;;;;16.10;31.60;;;14.37;38.04;103446.38;8309167;28;19924;-84
2022/03/20 12:35:47;;;;;;;;;;;16.50;32.10;;;14.46;37.78;103440.84;8329894;28;20003;-84
2022/03/20 12:40:10;;;;;;;;;;;16.20;29.10;;;14.48;37.62;103435.56;8315159;28;19935;-85
2022/03/20 12:44:32;;;;;;;;;;;16.30;30.70;;;14.61;37.91;103431.69;8314226;28;19921;-84
2022/03/20 12:48:55;;;;;;;;;;;16.20;29.20;;;14.54;37.85;103396.81;8307189;28;19917;-85
2022/03/20 12:53:21;;;;;;;;;;;16.40;32.40;;;14.67;37.86;103420.13;8322646;28;19924;-85
2022/03/20 12:57:47;;;;;;;;;;;16.40;28.70;;;14.64;37.74;103407.94;8314668;28;19992;-84
2022/03/20 13:02:10;;;;;;;;;;;16.40;28.00;;;14.42;37.63;103347.19;8315772;28;20012;-83
2022/03/20 13:06:31;;;;;;;;;;;16.40;29.90;;;14.81;37.42;103405.66;8301205;28;19917;-85
2022/03/20 13:10:55;;;;;;;;;;;16.50;30.30;;;14.90;37.75;103417.66;8331561;28;19927;-81
2022/03/20 13:15:27;;;;;;;;;;;16.40;31.00;;;14.98;37.55;103413.03;8315164;28;20012;-84
2022/03/20 13:19:48;;;;;;;;;;;16.60;30.40;;;14.98;36.71;103404.28;8328530;28;20008;-91
2022/03/20 13:24:10;;;;;;;;;;;16.50;29.70;;;14.97;37.02;103398.16;8310475;28;20623;-92
2022/03/20 13:28:40;;;;;;;;;;;16.70;27.40;;;14.92;36.38;103388.69;8299084;28;20020;-86
2022/03/20 13:33:02;;;;;;;;;;;16.70;30.50;;;14.86;36.75;103371.31;8351599;28;20020;-88
2022/03/20 13:37:24;;;;;;;;;;;16.70;30.60;;;14.99;36.54;103377.06;8300485;28;20338;-88
2022/03/20 13:41:45;;;;;;;;;;;16.60;29.40;;;14.77;35.99;103346.16;8280916;28;20009;-84
2022/03/20 13:46:27;;;;;;;;;;;16.60;31.50;;;14.93;36.33;103371.97;8306383;28;20012;-90
2022/03/20 13:50:49;;;;;;;;;;;16.60;27.60;;;14.93;36.19;103369.34;8326296;28;19931;-87
2022/03/20 13:55:19;;;;;;;;;;;16.60;30.60;;;15.00;36.05;103371.75;8344881;28;20011;-86
2022/03/20 13:59:51;;;;;;;;;;;16.60;28.60;;;14.88;36.31;103343.22;8299414;28;19921;-85
2022/03/20 14:04:21;;;;;;;;;;;16.60;28.40;;;14.93;36.03;103343.94;8325227;28;19943;-85
2022/03/20 14:08:51;;;;;;;;;;;16.40;27.20;;;15.02;36.21;103366.44;8339165;28;19943;-85
2022/03/20 14:13:26;;;;;;;;;;;16.60;29.30;;;14.87;35.54;103351.13;8322255;28;19928;-84
2022/03/20 14:17:51;;;;;;;;;;;16.60;28.60;;;14.94;35.81;103369.31;8340782;28;19916;-86
2022/03/20 14:22:13;;;;;;;;;;;16.80;29.30;;;14.74;35.75;103325.22;8348463;28;20468;-85
2022/03/20 14:26:35;;;;;;;;;;;16.50;27.50;;;14.85;35.33;103351.16;8342587;28;19921;-85
2022/03/20 14:40:26;;;;;;;;;;;16.40;27.80;;;14.78;35.54;103352.28;8318082;28;19923;-85
2022/03/20 14:44:49;;;;;;;;;;;16.40;28.00;;;14.70;35.23;103333.25;8336646;28;20035;-85
2022/03/20 14:49:11;;;;;;;;;;;16.30;29.70;;;14.76;35.35;103348.84;8320496;28;20008;-86
2022/03/20 14:53:33;;;;;;;;;;;16.20;29.90;;;14.35;35.53;103275.53;8327693;28;19926;-85
2022/03/20 14:58:00;;;;;;;;;;;16.30;27.30;;;14.64;34.97;103329.03;8330120;28;20011;-89
2022/03/20 15:02:24;;;;;;;;;;;16.30;28.80;;;14.55;35.10;103310.88;8312886;28;20012;-86
2022/03/20 15:06:47;;;;;;;;;;;16.30;29.00;;;14.29;34.94;103262.56;8299478;28;20011;-87
2022/03/20 15:11:30;;;;;;;;;;;16.20;28.00;;;14.58;35.11;103318.69;8325283;28;19947;-88
2022/03/20 15:15:51;;;;;;;;;;;16.20;28.10;;;14.59;34.42;103316.03;8330724;28;20016;-86
2022/03/20 15:20:12;;;;;;;;;;;16.10;30.10;;;14.54;34.73;103310.03;8287333;28;19917;-86
2022/03/20 15:24:35;;;;;;;;;;;16.20;30.20;;;14.41;34.66;103289.38;8303727;28;20007;-86
2022/03/20 15:28:57;;;;;;;;;;;16.20;31.30;;;14.56;34.71;103316.13;8350357;28;20342;-86
2022/03/20 15:33:18;;;;;;;;;;;16.10;28.80;;;14.51;34.62;103312.72;8344239;28;19927;-86
2022/03/20 15:37:40;;;;;;;;;;;16.20;28.90;;;14.53;35.10;103316.22;8348641;28;19996;-86
2022/03/20 15:42:03;;;;;;;;;;;16.20;29.80;;;14.35;35.01;103279.91;8324975;28;19924;-85
2022/03/20 15:46:26;;;;;;;;;;;16.10;30.40;;;14.46;34.58;103298.84;8303179;28;19924;-87
2022/03/20 15:50:48;;;;;;;;;;;16.10;28.40;;;14.45;34.74;103320.81;8315351;28;20003;-87
2022/03/20 15:55:09;;;;;;;;;;;16.00;30.60;;;14.24;34.81;103282.00;8293478;28;20004;-87
2022/03/20 15:59:31;;;;;;;;;;;16.00;31.20;;;14.39;34.67;103318.34;8296502;28;20023;-86
2022/03/20 16:03:53;;;;;;;;;;;16.00;28.50;;;14.30;34.80;103308.13;8297040;28;20100;-87
2022/03/20 16:08:15;;;;;;;;;;;16.00;28.70;;;14.30;34.97;103316.84;8288800;28;20004;-88
2022/03/20 16:12:37;;;;;;;;;;;16.10;29.90;;;14.23;34.94;103298.66;8312773;28;20478;-86
2022/03/20 16:16:59;;;;;;;;;;;15.80;29.90;;;14.25;34.95;103307.38;8317347;28;20003;-89
2022/03/20 16:21:24;;;;;;;;;;;15.80;29.50;;;14.15;34.95;103304.19;8298031;28;19921;-88
2022/03/20 16:30:26;;;;;;;;;;;15.70;28.70;;;13.98;35.06;103293.28;8309016;28;20369;-86
2022/03/20 16:34:48;;;;;;;;;;;15.90;30.00;;;14.07;35.11;103308.75;8269545;28;19932;-88
2022/03/20 16:39:10;;;;;;;;;;;15.60;30.20;;;13.91;34.84;103285.56;8302699;28;19925;-87
2022/03/20 16:43:32;;;;;;;;;;;15.50;30.70;;;13.78;34.90;103288.59;8319531;28;20336;-88
2022/03/20 16:47:54;;;;;;;;;;;15.50;30.60;;;13.81;34.83;103299.84;8298055;28;19926;-88
2022/03/20 16:52:18;;;;;;;;;;;15.50;31.40;;;13.59;34.93;103286.44;8309198;28;19925;-88
2022/03/20 16:56:40;;;;;;;;;;;15.40;31.00;;;13.53;35.15;103286.63;8293947;28;19932;-88
2022/03/20 17:01:01;;;;;;;;;;;15.10;28.70;;;13.36;34.68;103270.44;8302953;28;19920;-89
2022/03/20 17:05:23;;;;;;;;;;;15.10;30.00;;;13.37;35.18;103291.41;8287853;28;19927;-87
2022/03/20 17:09:44;;;;;;;;;;;15.10;30.50;;;13.23;34.89;103294.34;8307730;28;19927;-87
2022/03/20 17:14:06;;;;;;;;;;;15.00;30.80;;;13.20;35.15;103293.53;8314080;28;19924;-89
2022/03/20 17:18:28;;;;;;;;;;;14.90;31.00;;;13.22;34.98;103313.59;8263289;28;104342;-88
2022/03/20 17:22:51;;;;;;;;;;;14.80;31.10;;;13.06;34.92;103302.63;8267765;28;19921;-88
2022/03/20 17:27:15;;;;;;;;;;;14.70;30.20;;;13.10;35.12;103321.78;8264901;28;19921;-88
2022/03/20 17:31:36;;;;;;;;;;;14.70;31.00;;;13.01;35.24;103312.34;8258781;28;20309;-87
2022/03/20 17:35:59;;;;;;;;;;;14.60;31.30;;;12.95;35.29;103317.75;8285378;28;20297;-89
2022/03/20 17:40:21;;;;;;;;;;;14.60;31.20;;;12.93;35.30;103329.19;8286994;28;19921;-89
2022/03/20 17:44:42;;;;;;;;;;;14.50;31.10;;;12.82;35.26;103332.03;8276139;28;19927;-88
2022/03/20 17:49:04;;;;;;;;;;;14.40;31.00;;;12.79;35.32;103343.47;8296702;28;19924;-90
2022/03/20 17:53:28;;;;;;;;;;;14.30;30.20;;;12.74;35.10;103345.31;8313331;28;19931;-89
2022/03/20 17:57:50;;;;;;;;;;;14.20;31.30;;;12.65;35.17;103347.31;8278599;28;19928;-89
2022/03/20 18:11:33;;;;;;;;;;;14.00;31.30;;;12.29;35.34;103336.69;8314043;28;19925;-90
2022/03/20 18:15:54;;;;;;;;;;;13.90;31.50;;;12.22;35.44;103340.34;8285014;28;20390;-89
2022/03/20 18:20:17;;;;;;;;;;;13.90;31.00;;;12.21;35.45;103365.66;8253817;28;19917;-88
2022/03/20 18:24:38;;;;;;;;;;;13.80;31.50;;;12.04;35.10;103354.63;8254917;28;19926;-89
2022/03/20 18:29:00;;;;;;;;;;;13.70;30.90;;;12.03;35.17;103356.41;8252412;28;19947;-89
2022/03/20 18:33:22;;;;;;;;;;;13.60;31.30;;;11.84;35.37;103342.75;8265424;28;19929;-88
2022/03/20 18:37:44;;;;;;;;;;;13.40;31.00;;;11.89;35.26;103367.13;8300292;28;19948;-89
2022/03/20 18:42:06;;;;;;;;;;;13.30;31.40;;;11.77;35.30;103361.22;8289062;28;20408;-89
2022/03/20 18:46:28;;;;;;;;;;;13.40;31.70;;;11.76;35.50;103369.97;8282661;28;19925;-92
2022/03/20 18:50:50;;;;;;;;;;;13.30;31.30;;;11.54;35.21;103348.53;8311245;28;20332;-90
2022/03/20 18:55:11;;;;;;;;;;;13.10;31.70;;;11.51;35.22;103360.78;8308551;28;19925;-89
2022/03/20 18:59:34;;;;;;;;;;;13.20;31.40;;;11.50;35.23;103359.06;8296328;28;19927;-89
2022/03/20 19:03:56;;;;;;;;;;;13.10;31.80;;;11.32;35.29;103337.56;8295894;28;19924;-89
2022/03/20 19:08:17;;;;;;;;;;;13.00;31.70;;;11.28;35.46;103341.97;8301864;28;19928;-89
2022/03/20 19:12:41;;;;;;;;;;;13.00;31.70;;;11.26;35.50;103357.72;8300315;28;19925;-89
2022/03/20 19:17:03;;;;;;;;;;;12.80;31.30;;;11.24;34.91;103367.31;8329555;28;19917;-90
2022/03/20 19:21:25;;;;;;;;;;;12.80;31.90;;;10.81;35.65;103307.81;8265988;28;19917;-90
2022/03/20 19:25:46;;;;;;;;;;;12.70;31.50;;;10.90;35.78;103340.81;8295455;28;19925;-90
2022/03/20 19:30:11;;;;;;;;;;;12.60;31.30;;;10.78;35.51;103346.22;8317408;28;19999;-89
2022/03/20 19:43:52;;;;;;;;;;;12.30;31.70;;;10.53;35.81;103354.38;8302391;28;20007;-90
2022/03/20 19:48:14;;;;;;;;;;;12.50;32.00;;;10.41;35.72;103339.72;8261258;28;19924;-90
2022/03/20 19:52:36;;;;;;;;;;;12.10;31.70;;;10.18;35.76;103319.09;8289357;28;19925;-88
2022/03/20 19:56:57;;;;;;;;;;;12.00;30.70;;;10.41;35.33;103360.59;8270953;28;19917;-89
2022/03/20 20:01:19;;;;;;;;;;;11.90;31.40;;;10.35;35.83;103359.84;8303591;28;19931;-90
2022/03/20 20:05:41;;;;;;;;;;;11.90;31.90;;;10.25;35.29;103353.81;8281914;28;20019;-87
2022/03/20 20:10:05;;;;;;;;;;;11.90;31.70;;;10.21;35.48;103359.97;8290284;28;20016;-90
2022/03/20 20:14:47;;;;;;;;;;;11.90;32.00;;;10.13;35.69;103359.19;8278202;28;19927;-90
2022/03/20 20:19:08;;;;;;;;;;;11.70;31.30;;;9.98;35.40;103350.59;8300481;28;20003;-90
2022/03/20 20:23:30;;;;;;;;;;;11.70;31.60;;;10.09;35.61;103379.22;8272103;28;19921;-90
2022/03/20 20:27:54;;;;;;;;;;;11.60;31.40;;;9.92;35.73;103368.94;8269859;28;20008;-90
2022/03/20 20:32:16;;;;;;;;;;;11.90;31.50;;;9.89;35.92;103365.53;8288795;28;20020;-90
2022/03/20 20:36:38;;;;;;;;;;;11.50;31.70;;;9.69;35.75;103350.91;8279027;28;20008;-91
2022/03/20 20:41:00;;;;;;;;;;;11.40;31.90;;;9.75;35.18;103368.25;8300436;28;19985;-90
2022/03/20 20:45:23;;;;;;;;;;;11.40;32.00;;;9.71;35.44;103377.84;8307312;28;20004;-89
2022/03/20 20:49:44;;;;;;;;;;;11.30;32.10;;;9.51;35.42;103364.13;8313191;28;19917;-90
2022/03/20 20:54:07;;;;;;;;;;;11.10;32.20;;;9.64;36.04;103386.63;8282333;28;19921;-89
2022/03/20 20:58:34;;;;;;;;;;;11.30;32.30;;;9.62;35.51;103393.59;8293351;28;20011;-90
2022/03/20 21:02:55;;;;;;;;;;;11.30;32.50;;;9.41;35.63;103365.91;8305053;28;20012;-89
2022/03/20 21:11:57;;;;;;;;;;;11.10;32.40;;;9.30;35.42;103381.66;8285923;28;19928;-88
2022/03/20 21:16:19;;;;;;;;;;;11.00;32.40;;;9.34;35.97;103408.56;8293135;28;20011;-91